sim
Sign-in with your pilot id or email,
or register
Callsign
Passwort

Schedule Details

Flight Number: RYR2171 (2)
Departure: Bratislava M. R. Stefanik Airport (LZIB) at 14:40
Arrival: Thessaloniki International Airport (LGTS) at 16:30
Route: Ryanair Passenger Schedule. Enter filed route here before submitting Pirep.

Weather Information
Getting current METAR information for LZIB 211100Z 30009KT 250V320 9999 FEW036 SCT080 11/02 Q1027 NOSIG
Getting current METAR information for LGTS 211120Z 33019KT CAVOK 16/M01 Q1023 NOSIG

Schedule Frequency

Route Map